Time,TemperatureF,DewpointF,PressureIn,WindDirection,WindDirectionDegrees,WindSpeedMPH,WindSpeedGustMPH,Humidity,HourlyPrecipIn,Conditions,Clouds,dailyrainin,SoftwareType,DateUTC
2013-04-13 00:00:00,56.7,47.8,29.87,WNW,283,0.0,1.0,72,0.00,,---,0.37,VWS V14.01,2013-04-13 04:00:00,
2013-04-13 00:01:00,56.6,48.1,29.87,WNW,283,1.0,1.0,73,0.00,,---,0.37,VWS V14.01,2013-04-13 04:01:00,
2013-04-13 00:02:00,56.4,47.1,29.87,WNW,283,0.0,1.0,71,0.00,,---,0.00,VWS V14.01,2013-04-13 04:02:00,
2013-04-13 00:07:00,56.2,47.3,29.87,WNW,299,0.0,1.0,72,0.00,,---,0.00,VWS V14.01,2013-04-13 04:07:00,
2013-04-13 00:12:00,56.1,47.2,29.87,WNW,299,0.0,1.0,72,0.00,,---,0.00,VWS V14.01,2013-04-13 04:12:00,
2013-04-13 00:18:00,55.8,47.3,29.87,WNW,299,0.0,0.0,73,0.00,,---,0.00,VWS V14.01,2013-04-13 04:18:00,
2013-04-13 00:23:00,55.1,46.6,29.87,WNW,299,0.0,0.0,73,0.00,,---,0.00,VWS V14.01,2013-04-13 04:23:00,
2013-04-13 00:28:00,54.7,46.6,29.88,WNW,299,0.0,0.0,74,0.00,,---,0.00,VWS V14.01,2013-04-13 04:28:00,
2013-04-13 00:33:00,54.4,47.0,29.88,WNW,299,0.0,0.0,76,0.00,,---,0.00,VWS V14.01,2013-04-13 04:33:00,
2013-04-13 00:39:00,54.4,46.7,29.88,WNW,299,0.0,0.0,75,0.00,,---,0.00,VWS V14.01,2013-04-13 04:39:00,
2013-04-13 00:44:00,53.7,46.3,29.88,WNW,299,0.0,0.0,76,0.00,,---,0.00,VWS V14.01,2013-04-13 04:44:00,
2013-04-13 00:49:00,53.2,46.2,29.88,WNW,299,0.0,0.0,77,0.00,,---,0.00,VWS V14.01,2013-04-13 04:49:00,
2013-04-13 00:54:00,53.2,45.8,29.88,WNW,299,0.0,0.0,76,0.00,,---,0.00,VWS V14.01,2013-04-13 04:54:00,
2013-04-13 01:00:00,53.1,45.4,29.88,WNW,299,0.0,2.0,75,0.00,,---,0.00,VWS V14.01,2013-04-13 05:00:00,
2013-04-13 01:05:00,53.2,43.7,29.89,NW,326,0.0,2.0,70,0.00,,---,0.00,VWS V14.01,2013-04-13 05:05:00,
2013-04-13 01:10:00,52.8,44.0,29.89,NW,326,0.0,2.0,72,0.00,,---,0.00,VWS V14.01,2013-04-13 05:10:00,
2013-04-13 01:15:00,52.8,43.7,29.89,NNW,329,0.0,2.0,71,0.00,,---,0.00,VWS V14.01,2013-04-13 05:15:00,
2013-04-13 01:21:00,52.8,44.0,29.89,NNW,329,0.0,2.0,72,0.00,,---,0.00,VWS V14.01,2013-04-13 05:21:00,
2013-04-13 01:26:00,52.6,43.5,29.89,NNW,329,0.0,2.0,71,0.00,,---,0.00,VWS V14.01,2013-04-13 05:26:00,
2013-04-13 01:31:00,53.1,42.5,29.90,NNW,329,1.0,1.0,67,0.00,,---,0.00,VWS V14.01,2013-04-13 05:31:00,
2013-04-13 01:38:00,53.4,42.3,29.89,NNW,338,2.0,4.0,66,0.00,,---,0.00,VWS V14.01,2013-04-13 05:38:00,
2013-04-13 01:43:00,54.0,42.5,29.89,NNW,331,2.0,4.0,65,0.00,,---,0.00,VWS V14.01,2013-04-13 05:43:00,
2013-04-13 01:48:00,53.9,43.2,29.89,NNW,338,1.0,3.0,67,0.00,,---,0.00,VWS V14.01,2013-04-13 05:48:00,
2013-04-13 01:53:00,53.7,42.6,29.89,NNW,329,1.0,6.0,66,0.00,,---,0.00,VWS V14.01,2013-04-13 05:53:00,
2013-04-13 01:59:00,54.0,42.9,29.89,NNW,329,0.0,6.0,66,0.00,,---,0.00,VWS V14.01,2013-04-13 05:59:00,
2013-04-13 02:04:00,53.6,43.3,29.89,NNW,329,0.0,0.0,68,0.00,,---,0.00,VWS V14.01,2013-04-13 06:04:00,
2013-04-13 02:09:00,52.9,43.0,29.89,NNW,329,0.0,0.0,69,0.00,,---,0.00,VWS V14.01,2013-04-13 06:09:00,
2013-04-13 02:15:00,52.1,42.6,29.89,NNW,329,0.0,0.0,70,0.00,,---,0.00,VWS V14.01,2013-04-13 06:15:00,
2013-04-13 02:20:00,51.2,42.5,29.89,NNW,329,0.0,0.0,72,0.00,,---,0.00,VWS V14.01,2013-04-13 06:20:00,
2013-04-13 02:25:00,50.4,42.8,29.89,NNW,329,0.0,0.0,75,0.00,,---,0.00,VWS V14.01,2013-04-13 06:25:00,
2013-04-13 02:31:00,50.4,42.4,29.89,NNW,329,0.0,0.0,74,0.00,,---,0.00,VWS V14.01,2013-04-13 06:31:00,
2013-04-13 02:36:00,50.0,42.0,29.89,NNW,329,0.0,0.0,74,0.00,,---,0.00,VWS V14.01,2013-04-13 06:36:00,
2013-04-13 02:42:00,50.0,42.4,29.89,NNW,329,0.0,0.0,75,0.00,,---,0.00,VWS V14.01,2013-04-13 06:42:00,
2013-04-13 02:47:00,49.9,42.3,29.89,NNW,329,0.0,0.0,75,0.00,,---,0.00,VWS V14.01,2013-04-13 06:47:00,
2013-04-13 02:53:00,49.4,41.8,29.89,NNW,329,0.0,0.0,75,0.00,,---,0.00,VWS V14.01,2013-04-13 06:53:00,
2013-04-13 02:58:00,49.1,41.9,29.89,NNW,329,0.0,0.0,76,0.00,,---,0.00,VWS V14.01,2013-04-13 06:58:00,
2013-04-13 03:04:00,49.1,42.5,29.90,NNW,329,0.0,0.0,78,0.00,,---,0.00,VWS V14.01,2013-04-13 07:04:00,
2013-04-13 03:09:00,48.9,41.7,29.90,NNW,329,0.0,0.0,76,0.00,,---,0.00,VWS V14.01,2013-04-13 07:09:00,
2013-04-13 03:14:00,48.7,41.8,29.90,NNW,329,0.0,0.0,77,0.00,,---,0.00,VWS V14.01,2013-04-13 07:14:00,
2013-04-13 03:19:00,48.1,41.2,29.90,NNW,329,0.0,0.0,77,0.00,,---,0.00,VWS V14.01,2013-04-13 07:19:00,
2013-04-13 03:25:00,47.7,41.5,29.90,NNW,329,0.0,0.0,79,0.00,,---,0.00,VWS V14.01,2013-04-13 07:25:00,
2013-04-13 03:30:00,47.5,41.7,29.90,NNW,329,0.0,0.0,80,0.00,,---,0.00,VWS V14.01,2013-04-13 07:30:00,
2013-04-13 03:35:00,47.3,41.5,29.90,NNW,329,0.0,0.0,80,0.00,,---,0.00,VWS V14.01,2013-04-13 07:35:00,
2013-04-13 03:41:00,47.3,41.8,29.90,NNW,329,0.0,0.0,81,0.00,,---,0.00,VWS V14.01,2013-04-13 07:41:00,
2013-04-13 03:47:00,47.1,41.6,29.90,NNW,329,0.0,0.0,81,0.00,,---,0.00,VWS V14.01,2013-04-13 07:47:00,
2013-04-13 03:52:00,47.2,42.0,29.91,NNW,329,0.0,0.0,82,0.00,,---,0.00,VWS V14.01,2013-04-13 07:52:00,
2013-04-13 03:58:00,47.1,41.6,29.90,NNW,329,0.0,0.0,81,0.00,,---,0.00,VWS V14.01,2013-04-13 07:58:00,
2013-04-13 04:03:00,46.8,41.9,29.91,NNW,329,0.0,0.0,83,0.00,,---,0.00,VWS V14.01,2013-04-13 08:03:00,
2013-04-13 04:09:00,47.3,42.4,29.90,NNW,329,0.0,0.0,83,0.00,,---,0.00,VWS V14.01,2013-04-13 08:09:00,
2013-04-13 04:14:00,47.4,42.2,29.91,NNW,329,0.0,0.0,82,0.00,,---,0.00,VWS V14.01,2013-04-13 08:14:00,
2013-04-13 04:21:00,46.7,41.8,29.91,NNW,329,0.0,0.0,83,0.00,,---,0.00,VWS V14.01,2013-04-13 08:21:00,
2013-04-13 04:27:00,46.9,42.0,29.91,NNW,329,0.0,0.0,83,0.00,,---,0.00,VWS V14.01,2013-04-13 08:27:00,
2013-04-13 04:32:00,46.9,41.7,29.91,NNW,329,0.0,0.0,82,0.00,,---,0.00,VWS V14.01,2013-04-13 08:32:00,
2013-04-13 04:37:00,46.5,41.9,29.91,NNW,329,0.0,0.0,84,0.00,,---,0.00,VWS V14.01,2013-04-13 08:37:00,
2013-04-13 04:42:00,46.7,42.4,29.92,NNW,329,0.0,0.0,85,0.00,,---,0.00,VWS V14.01,2013-04-13 08:42:00,
2013-04-13 04:48:00,46.9,42.6,29.92,NNW,329,0.0,0.0,85,0.00,,---,0.00,VWS V14.01,2013-04-13 08:48:00,
2013-04-13 04:55:00,46.2,42.0,29.92,NNW,329,0.0,0.0,85,0.00,,---,0.00,VWS V14.01,2013-04-13 08:55:00,
2013-04-13 05:00:00,45.7,41.5,29.92,NNW,329,0.0,0.0,85,0.00,,---,0.00,VWS V14.01,2013-04-13 09:00:00,
2013-04-13 05:05:00,45.3,41.4,29.92,NNW,329,0.0,0.0,86,0.00,,---,0.00,VWS V14.01,2013-04-13 09:05:00,
2013-04-13 05:11:00,45.6,41.7,29.93,NNW,329,0.0,0.0,86,0.00,,---,0.00,VWS V14.01,2013-04-13 09:11:00,
2013-04-13 05:17:00,45.4,41.5,29.93,NNW,329,0.0,0.0,86,0.00,,---,0.00,VWS V14.01,2013-04-13 09:17:00,
2013-04-13 05:22:00,44.9,41.3,29.93,NNW,329,0.0,0.0,87,0.00,,---,0.00,VWS V14.01,2013-04-13 09:22:00,
2013-04-13 05:28:00,44.9,41.3,29.93,NNW,329,0.0,0.0,87,0.00,,---,0.00,VWS V14.01,2013-04-13 09:28:00,
2013-04-13 05:33:00,44.8,41.2,29.93,NNW,329,0.0,0.0,87,0.00,,---,0.00,VWS V14.01,2013-04-13 09:33:00,
2013-04-13 05:38:00,44.7,41.4,29.93,NNW,329,0.0,0.0,88,0.00,,---,0.00,VWS V14.01,2013-04-13 09:38:00,
2013-04-13 05:43:00,44.9,41.6,29.94,NNW,329,0.0,0.0,88,0.00,,---,0.00,VWS V14.01,2013-04-13 09:43:00,
2013-04-13 05:49:00,45.2,41.9,29.94,NNW,329,0.0,0.0,88,0.00,,---,0.00,VWS V14.01,2013-04-13 09:49:00,
2013-04-13 05:54:00,44.7,41.4,29.94,NNW,329,0.0,0.0,88,0.00,,---,0.00,VWS V14.01,2013-04-13 09:54:00,
2013-04-13 05:59:00,44.8,41.5,29.94,NNW,329,0.0,0.0,88,0.00,,---,0.00,VWS V14.01,2013-04-13 09:59:00,
2013-04-13 06:05:00,44.5,41.2,29.94,NNW,329,0.0,0.0,88,0.00,,---,0.00,VWS V14.01,2013-04-13 10:05:00,
2013-04-13 06:11:00,44.4,41.4,29.95,NNW,329,0.0,0.0,89,0.00,,---,0.00,VWS V14.01,2013-04-13 10:11:00,
2013-04-13 06:17:00,43.7,40.7,29.95,NNW,329,0.0,0.0,89,0.00,,---,0.00,VWS V14.01,2013-04-13 10:17:00,
2013-04-13 06:23:00,43.8,41.1,29.95,NNW,329,0.0,0.0,90,0.00,,---,0.00,VWS V14.01,2013-04-13 10:23:00,
2013-04-13 06:28:00,44.0,41.5,29.95,NNW,329,0.0,0.0,91,0.00,,---,0.00,VWS V14.01,2013-04-13 10:28:00,
2013-04-13 06:34:00,43.9,41.5,29.95,NNW,329,0.0,0.0,91,0.00,,---,0.00,VWS V14.01,2013-04-13 10:34:00,
2013-04-13 06:39:00,44.0,41.8,29.96,NNW,329,0.0,0.0,92,0.00,,---,0.00,VWS V14.01,2013-04-13 10:39:00,
2013-04-13 06:44:00,43.5,41.0,29.96,NNW,329,0.0,0.0,91,0.00,,---,0.00,VWS V14.01,2013-04-13 10:44:00,
2013-04-13 06:49:00,43.3,41.1,29.97,NNW,329,0.0,0.0,92,0.00,,---,0.00,VWS V14.01,2013-04-13 10:49:00,
2013-04-13 06:54:00,43.4,41.2,29.97,NNW,329,0.0,0.0,92,0.00,,---,0.00,VWS V14.01,2013-04-13 10:54:00,
2013-04-13 07:00:00,43.2,41.0,29.97,NNW,329,0.0,0.0,92,0.00,,---,0.00,VWS V14.01,2013-04-13 11:00:00,
2013-04-13 07:05:00,43.2,41.0,29.98,NNW,329,0.0,0.0,92,0.00,,---,0.00,VWS V14.01,2013-04-13 11:05:00,
2013-04-13 07:10:00,43.5,41.6,29.98,NNW,329,0.0,0.0,93,0.00,,---,0.00,VWS V14.01,2013-04-13 11:10:00,
2013-04-13 07:16:00,43.6,41.7,29.99,NNW,329,0.0,0.0,93,0.00,,---,0.00,VWS V14.01,2013-04-13 11:16:00,
2013-04-13 07:22:00,43.8,41.9,29.99,NNW,329,0.0,0.0,93,0.00,,---,0.00,VWS V14.01,2013-04-13 11:22:00,
2013-04-13 07:28:00,43.4,41.2,29.99,NNW,329,0.0,0.0,92,0.00,,---,0.00,VWS V14.01,2013-04-13 11:28:00,
2013-04-13 07:33:00,43.9,42.0,30.00,NNW,329,0.0,0.0,93,0.00,,---,0.00,VWS V14.01,2013-04-13 11:33:00,
2013-04-13 07:38:00,44.5,42.6,30.00,NNW,329,0.0,0.0,93,0.00,,---,0.00,VWS V14.01,2013-04-13 11:38:00,
2013-04-13 07:43:00,45.3,43.4,30.00,NNW,329,0.0,0.0,93,0.00,,---,0.00,VWS V14.01,2013-04-13 11:43:00,
2013-04-13 07:49:00,46.3,44.1,30.00,NNW,329,0.0,0.0,92,0.00,,---,0.00,VWS V14.01,2013-04-13 11:49:00,
2013-04-13 07:56:00,47.8,45.3,30.00,NNW,329,0.0,0.0,91,0.00,,---,0.00,VWS V14.01,2013-04-13 11:56:00,
2013-04-13 08:01:00,49.1,46.3,30.00,NNW,329,0.0,0.0,90,0.00,,---,0.00,VWS V14.01,2013-04-13 12:01:00,
2013-04-13 08:07:00,50.2,46.8,30.00,NNW,329,0.0,0.0,88,0.00,,---,0.00,VWS V14.01,2013-04-13 12:07:00,
2013-04-13 08:13:00,51.7,48.0,30.00,NNW,329,0.0,0.0,87,0.00,,---,0.00,VWS V14.01,2013-04-13 12:13:00,
2013-04-13 08:18:00,52.7,47.4,30.00,NNW,329,0.0,0.0,82,0.00,,---,0.00,VWS V14.01,2013-04-13 12:18:00,
2013-04-13 08:23:00,54.1,47.1,30.00,NNW,329,0.0,0.0,77,0.00,,---,0.00,VWS V14.01,2013-04-13 12:23:00,
2013-04-13 08:28:00,55.8,48.0,30.00,NNW,329,0.0,0.0,75,0.00,,---,0.00,VWS V14.01,2013-04-13 12:28:00,
2013-04-13 08:34:00,56.4,44.4,30.01,NNW,338,1.0,1.0,64,0.00,,---,0.00,VWS V14.01,2013-04-13 12:34:00,
2013-04-13 08:39:00,56.4,46.0,30.01,NNW,340,0.0,1.0,68,0.00,,---,0.00,VWS V14.01,2013-04-13 12:39:00,
2013-04-13 08:45:00,57.0,46.2,30.02,East,86,0.0,1.0,67,0.00,,---,0.00,VWS V14.01,2013-04-13 12:45:00,
2013-04-13 08:50:00,57.5,44.2,30.02,SE,134,1.0,2.0,61,0.00,,---,0.00,VWS V14.01,2013-04-13 12:50:00,
2013-04-13 08:55:00,57.3,43.1,30.02,ESE,105,2.0,3.0,59,0.00,,---,0.00,VWS V14.01,2013-04-13 12:55:00,
2013-04-13 09:02:00,57.8,44.5,30.02,ESE,118,0.0,2.0,61,0.00,,---,0.00,VWS V14.01,2013-04-13 13:02:00,
2013-04-13 09:07:00,59.3,44.5,30.02,SE,126,0.0,4.0,58,0.00,,---,0.00,VWS V14.01,2013-04-13 13:07:00,
2013-04-13 09:12:00,59.0,42.9,30.02,ESE,110,2.0,5.0,55,0.00,,---,0.00,VWS V14.01,2013-04-13 13:12:00,
2013-04-13 09:19:00,59.3,44.1,30.03,ESE,115,0.0,5.0,57,0.00,,---,0.00,VWS V14.01,2013-04-13 13:19:00,
2013-04-13 09:24:00,60.1,43.4,30.03,ESE,123,2.0,5.0,54,0.00,,---,0.00,VWS V14.01,2013-04-13 13:24:00,
2013-04-13 09:30:00,60.8,43.1,30.03,ESE,104,2.0,5.0,52,0.00,,---,0.00,VWS V14.01,2013-04-13 13:30:00,
2013-04-13 09:35:00,61.5,43.7,30.03,ESE,107,3.0,4.0,52,0.00,,---,0.00,VWS V14.01,2013-04-13 13:35:00,
2013-04-13 09:42:00,62.2,43.9,30.03,SE,130,2.0,4.0,51,0.00,,---,0.00,VWS V14.01,2013-04-13 13:42:00,
2013-04-13 09:47:00,63.2,46.3,30.03,NNW,331,0.0,3.0,54,0.00,,---,0.00,VWS V14.01,2013-04-13 13:47:00,
2013-04-13 09:52:00,63.6,44.6,30.03,NNW,333,1.0,4.0,50,0.00,,---,0.00,VWS V14.01,2013-04-13 13:52:00,
2013-04-13 09:58:00,64.0,41.1,30.03,ENE,74,0.0,11.0,43,0.00,,---,0.00,VWS V14.01,2013-04-13 13:58:00,
2013-04-13 10:03:00,63.3,42.8,30.03,East,100,5.0,5.0,47,0.00,,---,0.00,VWS V14.01,2013-04-13 14:03:00,
2013-04-13 10:08:00,62.5,42.0,30.03,SSE,161,1.0,5.0,47,0.00,,---,0.00,VWS V14.01,2013-04-13 14:08:00,
2013-04-13 10:14:00,62.9,42.9,30.03,SSE,157,0.0,5.0,48,0.00,,---,0.00,VWS V14.01,2013-04-13 14:14:00,
2013-04-13 10:19:00,65.0,44.8,30.03,NW,323,1.0,4.0,48,0.00,,---,0.00,VWS V14.01,2013-04-13 14:19:00,
2013-04-13 10:24:00,65.2,43.9,30.03,NW,319,3.0,4.0,46,0.00,,---,0.00,VWS V14.01,2013-04-13 14:24:00,
2013-04-13 10:29:00,65.7,44.4,30.03,NNE,30,5.0,5.0,46,0.00,,---,0.00,VWS V14.01,2013-04-13 14:29:00,
2013-04-13 10:35:00,64.7,45.7,30.03,NW,311,2.0,3.0,50,0.00,,---,0.00,VWS V14.01,2013-04-13 14:35:00,
2013-04-13 10:40:00,64.4,42.6,30.03,NE,39,0.0,4.0,45,0.00,,---,0.00,VWS V14.01,2013-04-13 14:40:00,
2013-04-13 10:45:00,64.5,44.9,30.03,WSW,238,1.0,4.0,49,0.00,,---,0.00,VWS V14.01,2013-04-13 14:45:00,
2013-04-13 10:53:00,66.2,43.7,30.04,NNE,15,0.0,4.0,44,0.00,,---,0.00,VWS V14.01,2013-04-13 14:53:00,
2013-04-13 10:58:00,66.8,44.8,30.04,WNW,296,2.0,4.0,45,0.00,,---,0.00,VWS V14.01,2013-04-13 14:58:00,
2013-04-13 11:04:00,67.3,44.1,30.04,NNW,333,0.0,4.0,43,0.00,,---,0.00,VWS V14.01,2013-04-13 15:04:00,
2013-04-13 11:09:00,67.6,44.3,30.04,SSW,203,2.0,4.0,43,0.00,,---,0.00,VWS V14.01,2013-04-13 15:09:00,
2013-04-13 11:16:00,66.7,48.0,30.04,WNW,298,1.0,4.0,51,0.00,,---,0.00,VWS V14.01,2013-04-13 15:16:00,
2013-04-13 11:21:00,67.5,44.2,30.04,NNW,335,2.0,5.0,43,0.00,,---,0.00,VWS V14.01,2013-04-13 15:21:00,
2013-04-13 11:27:00,67.8,44.5,30.04,NNW,331,0.0,5.0,43,0.00,,---,0.00,VWS V14.01,2013-04-13 15:27:00,
2013-04-13 11:32:00,65.9,41.6,30.04,SSE,165,1.0,3.0,41,0.00,,---,0.00,VWS V14.01,2013-04-13 15:32:00,
2013-04-13 11:37:00,65.5,41.2,30.04,South,172,2.0,4.0,41,0.00,,---,0.00,VWS V14.01,2013-04-13 15:37:00,
2013-04-13 11:42:00,66.8,43.6,30.04,SSE,163,2.0,4.0,43,0.00,,---,0.00,VWS V14.01,2013-04-13 15:42:00,
2013-04-13 11:47:00,66.5,43.3,30.04,SE,145,1.0,2.0,43,0.00,,---,0.00,VWS V14.01,2013-04-13 15:47:00,
2013-04-13 11:52:00,68.3,45.0,30.04,West,281,0.0,5.0,43,0.00,,---,0.00,VWS V14.01,2013-04-13 15:52:00,
2013-04-13 11:58:00,67.9,44.0,30.04,NNE,15,1.0,5.0,42,0.00,,---,0.00,VWS V14.01,2013-04-13 15:58:00,
2013-04-13 12:03:00,68.3,45.6,30.04,West,263,0.0,2.0,44,0.00,,---,0.00,VWS V14.01,2013-04-13 16:03:00,
2013-04-13 12:09:00,67.8,45.1,30.04,WSW,238,0.0,7.0,44,0.00,,---,0.00,VWS V14.01,2013-04-13 16:09:00,
2013-04-13 12:14:00,68.4,46.2,30.04,South,186,4.0,7.0,45,0.00,,---,0.00,VWS V14.01,2013-04-13 16:14:00,
2013-04-13 12:20:00,68.9,48.4,30.04,SW,215,3.0,4.0,48,0.00,,---,0.00,VWS V14.01,2013-04-13 16:20:00,
2013-04-13 12:27:00,67.8,46.9,30.04,SE,146,0.0,5.0,47,0.00,,---,0.00,VWS V14.01,2013-04-13 16:27:00,
2013-04-13 12:32:00,68.1,43.5,30.04,SSW,193,4.0,5.0,41,0.00,,---,0.00,VWS V14.01,2013-04-13 16:32:00,
2013-04-13 12:37:00,68.9,49.0,30.03,ESE,103,2.0,5.0,49,0.00,,---,0.00,VWS V14.01,2013-04-13 16:37:00,
2013-04-13 12:42:00,69.9,43.8,30.03,ESE,111,1.0,5.0,39,0.00,,---,0.00,VWS V14.01,2013-04-13 16:42:00,
2013-04-13 12:48:00,70.7,51.7,30.03,WNW,301,2.0,5.0,51,0.00,,---,0.00,VWS V14.01,2013-04-13 16:48:00,
2013-04-13 12:53:00,69.8,44.4,30.03,South,176,1.0,7.0,40,0.00,,---,0.00,VWS V14.01,2013-04-13 16:53:00,
2013-04-13 13:01:00,69.8,46.9,30.03,SSW,194,3.0,6.0,44,0.00,,---,0.00,VWS V14.01,2013-04-13 17:01:00,
2013-04-13 13:08:00,70.6,47.7,30.03,SSE,151,1.0,6.0,44,0.00,,---,0.00,VWS V14.01,2013-04-13 17:08:00,
2013-04-13 13:14:00,71.2,50.0,30.02,SSW,205,1.0,6.0,47,0.00,,---,0.00,VWS V14.01,2013-04-13 17:14:00,
2013-04-13 13:19:00,72.2,45.2,30.02,NW,306,3.0,8.0,38,0.00,,---,0.00,VWS V14.01,2013-04-13 17:19:00,
2013-04-13 13:24:00,72.2,47.2,30.02,West,271,0.0,8.0,41,0.00,,---,0.00,VWS V14.01,2013-04-13 17:24:00,
2013-04-13 13:30:00,72.1,47.8,30.02,West,269,2.0,8.0,42,0.00,,---,0.00,VWS V14.01,2013-04-13 17:30:00,
2013-04-13 13:35:00,72.2,44.5,30.02,WNW,282,0.0,9.0,37,0.00,,---,0.00,VWS V14.01,2013-04-13 17:35:00,
2013-04-13 13:41:00,72.4,47.4,30.01,NW,316,3.0,9.0,41,0.00,,---,0.00,VWS V14.01,2013-04-13 17:41:00,
2013-04-13 13:47:00,73.0,49.2,30.01,North,5,2.0,3.0,43,0.00,,---,0.00,VWS V14.01,2013-04-13 17:47:00,
2013-04-13 13:53:00,72.2,49.1,30.01,NW,323,5.0,8.0,44,0.00,,---,0.00,VWS V14.01,2013-04-13 17:53:00,
2013-04-13 13:59:00,72.8,45.7,30.00,NW,315,2.0,8.0,38,0.00,,---,0.00,VWS V14.01,2013-04-13 17:59:00,
2013-04-13 14:05:00,72.5,42.6,30.01,ESE,118,2.0,6.0,34,0.00,,---,0.00,VWS V14.01,2013-04-13 18:05:00,
2013-04-13 14:10:00,71.4,45.8,30.01,South,183,3.0,6.0,40,0.00,,---,0.00,VWS V14.01,2013-04-13 18:10:00,
2013-04-13 14:16:00,71.3,45.1,30.01,West,265,1.0,7.0,39,0.00,,---,0.00,VWS V14.01,2013-04-13 18:16:00,
2013-04-13 14:22:00,73.0,45.9,30.01,West,277,5.0,8.0,38,0.00,,---,0.00,VWS V14.01,2013-04-13 18:22:00,
2013-04-13 14:27:00,73.2,46.8,30.00,WNW,284,0.0,9.0,39,0.00,,---,0.00,VWS V14.01,2013-04-13 18:27:00,
2013-04-13 14:28:00,73.3,44.0,30.00,West,281,0.0,9.0,35,0.00,,---,0.00,VWS V14.01,2013-04-13 18:28:00,
2013-04-13 14:29:00,73.3,44.0,30.00,West,266,2.0,9.0,35,0.00,,---,0.00,VWS V14.01,2013-04-13 18:29:00,
2013-04-13 14:30:00,73.3,44.8,30.01,South,176,2.0,9.0,36,0.00,,---,0.00,VWS V14.01,2013-04-13 18:30:00,
2013-04-13 14:37:00,73.3,45.5,30.00,WSW,237,1.0,5.0,37,0.00,,---,0.00,VWS V14.01,2013-04-13 18:37:00,
2013-04-13 14:42:00,72.6,44.1,30.00,SSE,157,1.0,7.0,36,0.00,,---,0.00,VWS V14.01,2013-04-13 18:42:00,
2013-04-13 14:47:00,72.5,44.1,30.00,South,189,2.0,3.0,36,0.00,,---,0.00,VWS V14.01,2013-04-13 18:47:00,
2013-04-13 14:52:00,73.0,47.3,30.00,NW,304,2.0,4.0,40,0.00,,---,0.00,VWS V14.01,2013-04-13 18:52:00,
2013-04-13 14:57:00,73.9,46.7,30.00,NW,316,0.0,6.0,38,0.00,,---,0.00,VWS V14.01,2013-04-13 18:57:00,
2013-04-13 15:03:00,74.0,45.4,29.99,WSW,247,2.0,7.0,36,0.00,,---,0.00,VWS V14.01,2013-04-13 19:03:00,
2013-04-13 15:08:00,73.2,41.6,30.00,ESE,111,0.0,7.0,32,0.00,,---,0.00,VWS V14.01,2013-04-13 19:08:00,
2013-04-13 15:13:00,74.0,45.4,29.99,West,264,4.0,9.0,36,0.00,,---,0.00,VWS V14.01,2013-04-13 19:13:00,
2013-04-13 15:18:00,74.2,44.1,29.99,West,279,1.0,8.0,34,0.00,,---,0.00,VWS V14.01,2013-04-13 19:18:00,
2013-04-13 15:24:00,73.5,47.0,29.99,NNE,12,1.0,8.0,39,0.00,,---,0.00,VWS V14.01,2013-04-13 19:24:00,
2013-04-13 15:29:00,74.5,47.2,29.99,WSW,254,4.0,8.0,38,0.00,,---,0.00,VWS V14.01,2013-04-13 19:29:00,
2013-04-13 15:34:00,74.6,47.3,29.99,NE,44,0.0,6.0,38,0.00,,---,0.00,VWS V14.01,2013-04-13 19:34:00,
2013-04-13 15:39:00,73.7,42.0,29.99,West,272,2.0,8.0,32,0.00,,---,0.00,VWS V14.01,2013-04-13 19:39:00,
2013-04-13 15:45:00,73.1,44.6,29.98,West,265,3.0,13.0,36,0.00,,---,0.00,VWS V14.01,2013-04-13 19:45:00,
2013-04-13 15:50:00,73.6,44.3,29.98,NW,313,1.0,10.0,35,0.00,,---,0.00,VWS V14.01,2013-04-13 19:50:00,
2013-04-13 15:55:00,74.3,46.4,29.98,NNE,19,1.0,10.0,37,0.00,,---,0.00,VWS V14.01,2013-04-13 19:55:00,
2013-04-13 16:00:00,74.7,47.4,29.98,WNW,283,3.0,10.0,38,0.00,,---,0.00,VWS V14.01,2013-04-13 20:00:00,
2013-04-13 16:06:00,74.4,45.0,29.98,NNW,338,4.0,7.0,35,0.00,,---,0.00,VWS V14.01,2013-04-13 20:06:00,
2013-04-13 16:11:00,74.2,44.1,29.97,NNE,23,1.0,7.0,34,0.00,,---,0.00,VWS V14.01,2013-04-13 20:11:00,
2013-04-13 16:17:00,73.4,41.8,29.97,SSW,195,2.0,4.0,32,0.00,,---,0.00,VWS V14.01,2013-04-13 20:17:00,
2013-04-13 16:22:00,73.8,45.9,29.97,SW,222,3.0,13.0,37,0.00,,---,0.00,VWS V14.01,2013-04-13 20:22:00,
2013-04-13 16:27:00,74.4,45.7,29.97,WNW,286,1.0,13.0,36,0.00,,---,0.00,VWS V14.01,2013-04-13 20:27:00,
2013-04-13 16:33:00,74.8,45.3,29.97,WSW,255,6.0,9.0,35,0.00,,---,0.00,VWS V14.01,2013-04-13 20:33:00,
2013-04-13 16:38:00,74.5,44.3,29.97,WNW,302,4.0,9.0,34,0.00,,---,0.00,VWS V14.01,2013-04-13 20:38:00,
2013-04-13 16:43:00,74.6,45.2,29.97,NW,307,0.0,9.0,35,0.00,,---,0.00,VWS V14.01,2013-04-13 20:43:00,
2013-04-13 16:48:00,74.4,43.5,29.96,West,279,3.0,6.0,33,0.00,,---,0.00,VWS V14.01,2013-04-13 20:48:00,
2013-04-13 16:53:00,74.0,46.1,29.96,WSW,254,1.0,6.0,37,0.00,,---,0.00,VWS V14.01,2013-04-13 20:53:00,
2013-04-13 16:58:00,73.8,47.3,29.97,WSW,244,0.0,6.0,39,0.00,,---,0.00,VWS V14.01,2013-04-13 20:58:00,
2013-04-13 17:03:00,74.3,44.1,29.97,West,277,0.0,3.0,34,0.00,,---,0.00,VWS V14.01,2013-04-13 21:03:00,
2013-04-13 17:09:00,73.7,45.1,29.96,SSE,164,0.0,6.0,36,0.00,,---,0.00,VWS V14.01,2013-04-13 21:09:00,
2013-04-13 17:14:00,74.0,42.3,29.96,ESE,107,3.0,7.0,32,0.00,,---,0.00,VWS V14.01,2013-04-13 21:14:00,
2013-04-13 17:19:00,73.9,42.2,29.96,SSW,207,1.0,7.0,32,0.00,,---,0.00,VWS V14.01,2013-04-13 21:19:00,
2013-04-13 17:25:00,73.9,43.0,29.96,West,267,3.0,7.0,33,0.00,,---,0.00,VWS V14.01,2013-04-13 21:25:00,
2013-04-13 17:30:00,74.1,42.4,29.97,SSW,213,4.0,7.0,32,0.00,,---,0.00,VWS V14.01,2013-04-13 21:30:00,
2013-04-13 17:35:00,73.9,42.2,29.97,South,169,1.0,7.0,32,0.00,,---,0.00,VWS V14.01,2013-04-13 21:35:00,
2013-04-13 17:42:00,73.9,44.5,29.97,West,281,2.0,7.0,35,0.00,,---,0.00,VWS V14.01,2013-04-13 21:42:00,
2013-04-13 17:47:00,73.9,45.3,29.97,North,355,2.0,4.0,36,0.00,,---,0.00,VWS V14.01,2013-04-13 21:47:00,
2013-04-13 17:52:00,73.9,41.4,29.97,South,185,2.0,4.0,31,0.00,,---,0.00,VWS V14.01,2013-04-13 21:52:00,
2013-04-13 17:57:00,74.2,44.1,29.96,WSW,238,0.0,4.0,34,0.00,,---,0.00,VWS V14.01,2013-04-13 21:57:00,
2013-04-13 18:02:00,74.1,42.4,29.96,WSW,256,2.0,3.0,32,0.00,,---,0.00,VWS V14.01,2013-04-13 22:02:00,
2013-04-13 18:07:00,74.3,43.4,29.96,West,267,2.0,5.0,33,0.00,,---,0.00,VWS V14.01,2013-04-13 22:07:00,
2013-04-13 18:13:00,74.1,42.4,29.96,SW,217,2.0,5.0,32,0.00,,---,0.00,VWS V14.01,2013-04-13 22:13:00,
2013-04-13 18:18:00,74.0,42.3,29.96,SW,229,0.0,5.0,32,0.00,,---,0.00,VWS V14.01,2013-04-13 22:18:00,
2013-04-13 18:24:00,74.2,43.3,29.96,NW,306,0.0,5.0,33,0.00,,---,0.00,VWS V14.01,2013-04-13 22:24:00,
2013-04-13 18:29:00,74.2,41.7,29.97,WSW,252,1.0,5.0,31,0.00,,---,0.00,VWS V14.01,2013-04-13 22:29:00,
2013-04-13 18:34:00,73.9,39.7,29.96,West,265,0.0,6.0,29,0.00,,---,0.00,VWS V14.01,2013-04-13 22:34:00,
2013-04-13 18:40:00,74.0,38.9,29.97,NW,312,3.0,6.0,28,0.00,,---,0.00,VWS V14.01,2013-04-13 22:40:00,
2013-04-13 18:45:00,73.9,39.7,29.97,NW,319,1.0,6.0,29,0.00,,---,0.00,VWS V14.01,2013-04-13 22:45:00,
2013-04-13 18:50:00,73.8,41.3,29.97,NNW,341,0.0,4.0,31,0.00,,---,0.00,VWS V14.01,2013-04-13 22:50:00,
2013-04-13 18:55:00,73.9,39.7,29.97,NW,321,1.0,4.0,29,0.00,,---,0.00,VWS V14.01,2013-04-13 22:55:00,
2013-04-13 19:00:00,73.7,40.4,29.97,West,269,4.0,5.0,30,0.00,,---,0.00,VWS V14.01,2013-04-13 23:00:00,
2013-04-13 19:05:00,73.5,40.2,29.97,WNW,286,1.0,5.0,30,0.00,,---,0.00,VWS V14.01,2013-04-13 23:05:00,
2013-04-13 19:11:00,73.5,41.0,29.97,WNW,284,0.0,5.0,31,0.00,,---,0.00,VWS V14.01,2013-04-13 23:11:00,
2013-04-13 19:16:00,73.2,41.6,29.97,WNW,287,0.0,5.0,32,0.00,,---,0.00,VWS V14.01,2013-04-13 23:16:00,
2013-04-13 19:21:00,72.8,40.4,29.98,WNW,287,0.0,1.0,31,0.00,,---,0.00,VWS V14.01,2013-04-13 23:21:00,
2013-04-13 19:26:00,72.5,43.3,29.98,WNW,287,0.0,1.0,35,0.00,,---,0.00,VWS V14.01,2013-04-13 23:26:00,
2013-04-13 19:31:00,71.3,43.7,29.98,WNW,287,0.0,0.0,37,0.00,,---,0.00,VWS V14.01,2013-04-13 23:31:00,
2013-04-13 19:37:00,69.7,43.7,29.98,WNW,287,0.0,0.0,39,0.00,,---,0.00,VWS V14.01,2013-04-13 23:37:00,
2013-04-13 19:43:00,68.3,44.3,29.98,WNW,287,0.0,0.0,42,0.00,,---,0.00,VWS V14.01,2013-04-13 23:43:00,
2013-04-13 19:48:00,67.3,43.5,29.98,WNW,287,0.0,0.0,42,0.00,,---,0.00,VWS V14.01,2013-04-13 23:48:00,
2013-04-13 19:54:00,66.5,43.3,29.98,WNW,287,0.0,0.0,43,0.00,,---,0.00,VWS V14.01,2013-04-13 23:54:00,
2013-04-13 19:59:00,65.3,44.0,29.98,WNW,287,0.0,0.0,46,0.00,,---,0.00,VWS V14.01,2013-04-13 23:59:00,
2013-04-13 20:04:00,64.8,44.1,29.98,WNW,287,0.0,0.0,47,0.00,,---,0.00,VWS V14.01,2013-04-14 00:04:00,
2013-04-13 20:10:00,64.3,43.7,29.99,WNW,287,0.0,0.0,47,0.00,,---,0.00,VWS V14.01,2013-04-14 00:10:00,
2013-04-13 20:15:00,64.1,43.5,29.99,WNW,287,0.0,0.0,47,0.00,,---,0.00,VWS V14.01,2013-04-14 00:15:00,
2013-04-13 20:20:00,62.9,44.0,29.99,WNW,287,0.0,0.0,50,0.00,,---,0.00,VWS V14.01,2013-04-14 00:20:00,
2013-04-13 20:25:00,62.0,43.7,29.99,WNW,287,0.0,0.0,51,0.00,,---,0.00,VWS V14.01,2013-04-14 00:25:00,
2013-04-13 20:30:00,61.4,44.1,29.99,WNW,287,0.0,0.0,53,0.00,,---,0.00,VWS V14.01,2013-04-14 00:30:00,
2013-04-13 20:36:00,60.8,44.1,30.00,WNW,287,0.0,0.0,54,0.00,,---,0.00,VWS V14.01,2013-04-14 00:36:00,
2013-04-13 20:41:00,60.4,44.2,30.00,WNW,287,0.0,0.0,55,0.00,,---,0.00,VWS V14.01,2013-04-14 00:41:00,
2013-04-13 20:46:00,60.5,44.7,30.00,WNW,287,0.0,0.0,56,0.00,,---,0.00,VWS V14.01,2013-04-14 00:46:00,
2013-04-13 20:52:00,60.4,46.0,30.00,WNW,287,0.0,0.0,59,0.00,,---,0.00,VWS V14.01,2013-04-14 00:52:00,
2013-04-13 20:57:00,59.9,46.0,30.01,WNW,287,0.0,0.0,60,0.00,,---,0.00,VWS V14.01,2013-04-14 00:57:00,
2013-04-13 21:02:00,59.4,46.0,30.01,WNW,287,0.0,0.0,61,0.00,,---,0.00,VWS V14.01,2013-04-14 01:02:00,
2013-04-13 21:07:00,58.9,46.3,30.02,WNW,287,0.0,0.0,63,0.00,,---,0.00,VWS V14.01,2013-04-14 01:07:00,
2013-04-13 21:13:00,58.6,46.5,30.02,WNW,287,0.0,0.0,64,0.00,,---,0.00,VWS V14.01,2013-04-14 01:13:00,
2013-04-13 21:18:00,57.9,46.6,30.02,WNW,287,0.0,0.0,66,0.00,,---,0.00,VWS V14.01,2013-04-14 01:18:00,
2013-04-13 21:23:00,57.4,46.2,30.02,WNW,287,0.0,0.0,66,0.00,,---,0.00,VWS V14.01,2013-04-14 01:23:00,
2013-04-13 21:28:00,56.8,46.8,30.03,WNW,287,0.0,0.0,69,0.00,,---,0.00,VWS V14.01,2013-04-14 01:28:00,
2013-04-13 21:33:00,56.1,46.5,30.03,WNW,287,0.0,0.0,70,0.00,,---,0.00,VWS V14.01,2013-04-14 01:33:00,
2013-04-13 21:39:00,56.1,46.5,30.04,WNW,287,0.0,0.0,70,0.00,,---,0.00,VWS V14.01,2013-04-14 01:39:00,
2013-04-13 21:44:00,56.3,46.3,30.04,WNW,287,0.0,0.0,69,0.00,,---,0.00,VWS V14.01,2013-04-14 01:44:00,
2013-04-13 21:49:00,55.8,46.2,30.04,WNW,287,0.0,0.0,70,0.00,,---,0.00,VWS V14.01,2013-04-14 01:49:00,
2013-04-13 21:55:00,55.6,46.7,30.05,WNW,287,0.0,0.0,72,0.00,,---,0.00,VWS V14.01,2013-04-14 01:55:00,
2013-04-13 22:00:00,55.5,46.6,30.05,WNW,287,0.0,0.0,72,0.00,,---,0.00,VWS V14.01,2013-04-14 02:00:00,
2013-04-13 22:05:00,56.0,47.1,30.05,WNW,287,0.0,0.0,72,0.00,,---,0.00,VWS V14.01,2013-04-14 02:05:00,
2013-04-13 22:10:00,55.7,46.5,30.05,WNW,287,0.0,0.0,71,0.00,,---,0.00,VWS V14.01,2013-04-14 02:10:00,
2013-04-13 22:16:00,55.4,46.9,30.06,NNW,338,2.0,3.0,73,0.00,,---,0.00,VWS V14.01,2013-04-14 02:16:00,
2013-04-13 22:22:00,55.9,45.5,30.06,North,351,0.0,4.0,68,0.00,,---,0.00,VWS V14.01,2013-04-14 02:22:00,
2013-04-13 22:27:00,56.0,45.2,30.06,North,351,0.0,4.0,67,0.00,,---,0.00,VWS V14.01,2013-04-14 02:27:00,
2013-04-13 22:32:00,55.9,45.5,30.07,North,351,0.0,0.0,68,0.00,,---,0.00,VWS V14.01,2013-04-14 02:32:00,
2013-04-13 22:38:00,55.9,45.5,30.07,North,351,0.0,0.0,68,0.00,,---,0.00,VWS V14.01,2013-04-14 02:38:00,
2013-04-13 22:43:00,55.6,45.6,30.07,North,351,0.0,0.0,69,0.00,,---,0.00,VWS V14.01,2013-04-14 02:43:00,
2013-04-13 22:48:00,55.2,45.6,30.07,North,351,0.0,2.0,70,0.00,,---,0.00,VWS V14.01,2013-04-14 02:48:00,
2013-04-13 22:53:00,55.2,45.6,30.07,NNE,24,1.0,4.0,70,0.00,,---,0.00,VWS V14.01,2013-04-14 02:53:00,
2013-04-13 22:58:00,55.8,45.8,30.07,West,273,0.0,4.0,69,0.00,,---,0.00,VWS V14.01,2013-04-14 02:58:00,
2013-04-13 23:03:00,56.2,46.2,30.07,West,273,0.0,0.0,69,0.00,,---,0.00,VWS V14.01,2013-04-14 03:03:00,
2013-04-13 23:09:00,56.4,46.0,30.08,West,273,0.0,0.0,68,0.00,,---,0.00,VWS V14.01,2013-04-14 03:09:00,
2013-04-13 23:14:00,56.0,46.0,30.08,West,273,0.0,0.0,69,0.00,,---,0.00,VWS V14.01,2013-04-14 03:14:00,
2013-04-13 23:19:00,55.3,45.7,30.08,West,273,0.0,0.0,70,0.00,,---,0.00,VWS V14.01,2013-04-14 03:19:00,
2013-04-13 23:25:00,54.5,45.7,30.07,West,273,0.0,0.0,72,0.00,,---,0.00,VWS V14.01,2013-04-14 03:25:00,
2013-04-13 23:30:00,53.9,45.5,30.07,West,273,0.0,0.0,73,0.00,,---,0.00,VWS V14.01,2013-04-14 03:30:00,
2013-04-13 23:35:00,53.4,45.0,30.07,West,273,0.0,0.0,73,0.00,,---,0.00,VWS V14.01,2013-04-14 03:35:00,
2013-04-13 23:40:00,53.1,45.0,30.07,West,273,0.0,0.0,74,0.00,,---,0.00,VWS V14.01,2013-04-14 03:40:00,
2013-04-13 23:46:00,52.9,44.8,30.07,West,273,0.0,0.0,74,0.00,,---,0.00,VWS V14.01,2013-04-14 03:46:00,
2013-04-13 23:51:00,52.7,44.3,30.07,West,273,0.0,0.0,73,0.00,,---,0.00,VWS V14.01,2013-04-14 03:51:00,
2013-04-13 23:56:00,52.6,44.2,30.07,West,273,0.0,0.0,73,0.00,,---,0.00,VWS V14.01,2013-04-14 03:56:00,